createdAt,value
2023-04-13T00:01:22.474Z,99908.13
2023-04-13T00:03:50.940Z,99905.06
2023-04-13T00:06:20.193Z,99908.78
2023-04-13T00:08:47.763Z,99909.22
2023-04-13T00:11:16.415Z,99926.53
2023-04-13T00:13:47.381Z,99920.94
2023-04-13T00:16:22.448Z,99909.16
2023-04-13T00:18:52.576Z,99903.22
2023-04-13T00:21:20.759Z,99893.63
2023-04-13T00:23:48.183Z,99893.44
2023-04-13T00:26:15.795Z,99897.28
2023-04-13T00:28:44.915Z,99892.53
2023-04-13T00:31:12.493Z,99891.50
2023-04-13T00:33:41.712Z,99892.75
2023-04-13T00:36:09.950Z,99886.38
2023-04-13T00:38:37.917Z,99886.63
2023-04-13T00:41:05.725Z,99888.72
2023-04-13T00:43:33.771Z,99888.53
2023-04-13T00:46:01.356Z,99896.03
2023-04-13T00:48:35.181Z,99890.81
2023-04-13T00:51:03.926Z,99882.38
2023-04-13T00:53:32.017Z,99881.94
2023-04-13T00:56:00.537Z,99896.81
2023-04-13T00:58:33.441Z,99890.19
2023-04-13T01:01:01.009Z,99897.63
2023-04-13T01:03:30.877Z,99888.97
2023-04-13T01:06:21.319Z,99894.31
2023-04-13T01:09:08.416Z,99895.38
2023-04-13T01:11:48.695Z,99891.25
2023-04-13T01:14:31.734Z,99897.03
2023-04-13T01:17:04.272Z,99898.47
2023-04-13T01:19:42.702Z,99904.31
2023-04-13T01:22:14.487Z,99910.44
2023-04-13T01:25:14.716Z,99911.13
2023-04-13T01:28:17.977Z,99921.34
2023-04-13T01:30:47.667Z,99914.09
2023-04-13T01:33:16.285Z,99922.41
2023-04-13T01:35:54.750Z,99928.56
2023-04-13T01:38:27.085Z,99933.16
2023-04-13T01:40:54.544Z,99933.34
2023-04-13T01:43:24.243Z,99929.31
2023-04-13T01:46:01.274Z,99928.50
2023-04-13T01:48:36.136Z,99927.34
2023-04-13T01:51:08.687Z,99928.03
2023-04-13T01:53:40.345Z,99915.03
2023-04-13T01:56:13.167Z,99915.56
2023-04-13T01:58:43.969Z,99917.03
2023-04-13T02:01:12.876Z,99925.97
2023-04-13T02:04:01.874Z,99931.19
2023-04-13T02:06:30.142Z,99925.69
2023-04-13T02:08:57.684Z,99915.06
2023-04-13T02:11:25.986Z,99919.88
2023-04-13T02:13:57.668Z,99915.50
2023-04-13T02:16:28.437Z,99919.03
2023-04-13T02:19:00.307Z,99909.16
2023-04-13T02:21:28.376Z,99907.13
2023-04-13T02:23:57.526Z,99905.88
2023-04-13T02:26:26.398Z,99906.09
2023-04-13T02:28:53.848Z,99915.84
2023-04-13T02:31:44.239Z,99907.31
2023-04-13T02:34:13.080Z,99900.81
2023-04-13T02:36:40.592Z,99906.59
2023-04-13T02:39:08.560Z,99902.47
2023-04-13T02:41:37.913Z,99896.81
2023-04-13T02:44:06.415Z,99887.13
2023-04-13T02:46:34.255Z,99885.44
2023-04-13T02:49:06.013Z,99882.13
2023-04-13T02:51:34.031Z,99887.72
2023-04-13T02:54:03.424Z,99889.88
2023-04-13T02:56:31.974Z,99890.81
2023-04-13T02:58:59.907Z,99903.78
2023-04-13T03:01:29.665Z,99893.44
2023-04-13T03:03:58.587Z,99896.44
2023-04-13T03:06:26.108Z,99892.38
2023-04-13T03:08:53.925Z,99903.53
2023-04-13T03:11:26.387Z,99910.25
2023-04-13T03:13:54.298Z,99902.06
2023-04-13T03:16:21.844Z,99893.38
2023-04-13T03:18:56.226Z,99900.78
2023-04-13T03:21:23.781Z,99909.28
2023-04-13T03:23:51.337Z,99923.97
2023-04-13T03:26:20.234Z,99921.72
2023-04-13T03:28:47.828Z,99918.78
2023-04-13T03:31:16.080Z,99907.00
2023-04-13T03:33:44.511Z,99911.97
2023-04-13T03:36:12.454Z,99923.50
2023-04-13T03:38:42.736Z,99924.81
2023-04-13T03:41:10.558Z,99929.78
2023-04-13T03:43:38.199Z,99932.72
2023-04-13T03:46:07.999Z,99935.47
2023-04-13T03:48:36.041Z,99947.16
2023-04-13T03:51:03.572Z,99940.84
2023-04-13T03:53:31.528Z,99949.03
2023-04-13T03:55:59.137Z,99944.38
2023-04-13T03:58:27.401Z,99952.69
2023-04-13T04:00:55.899Z,99956.97
2023-04-13T04:03:25.900Z,99961.44
2023-04-13T04:05:53.657Z,99968.75
2023-04-13T04:08:21.258Z,99964.75
2023-04-13T04:10:48.937Z,99963.50
2023-04-13T04:13:17.225Z,99964.47
2023-04-13T04:15:46.562Z,99979.06
2023-04-13T04:18:14.055Z,99973.38
2023-04-13T04:20:41.754Z,99974.72
2023-04-13T04:23:11.224Z,99974.88
2023-04-13T04:25:40.652Z,99972.03
2023-04-13T04:28:08.746Z,99975.66
2023-04-13T04:30:36.174Z,99983.91
2023-04-13T04:33:04.873Z,99975.28
2023-04-13T04:35:35.809Z,99965.31
2023-04-13T04:38:04.510Z,99961.75
2023-04-13T04:40:36.165Z,99969.84
2023-04-13T04:43:05.029Z,99962.72
2023-04-13T04:45:33.268Z,99961.66
2023-04-13T04:48:03.354Z,99968.28
2023-04-13T04:50:30.973Z,99966.97
2023-04-13T04:52:58.393Z,99968.69
2023-04-13T04:55:25.856Z,99964.91
2023-04-13T04:57:53.439Z,99968.91
2023-04-13T05:00:22.000Z,99969.75
2023-04-13T05:02:51.334Z,99971.81
2023-04-13T05:05:19.279Z,99982.97
2023-04-13T05:07:46.853Z,99973.19
2023-04-13T05:10:14.703Z,99966.88
2023-04-13T05:12:42.799Z,99978.44
2023-04-13T05:15:10.591Z,99970.91
2023-04-13T05:17:38.754Z,99985.94
2023-04-13T05:20:07.348Z,99984.59
2023-04-13T05:22:34.908Z,99979.38
2023-04-13T05:25:02.260Z,99982.72
2023-04-13T05:27:30.066Z,99967.56
2023-04-13T05:29:57.429Z,99969.97
2023-04-13T05:32:25.011Z,99966.03
2023-04-13T05:34:52.787Z,99964.44
2023-04-13T05:37:21.562Z,99969.03
2023-04-13T05:39:50.184Z,99962.88
2023-04-13T05:42:17.628Z,99957.16
2023-04-13T05:44:44.998Z,99945.00
2023-04-13T05:47:12.796Z,99945.56
2023-04-13T05:49:40.445Z,99937.94
2023-04-13T05:52:10.630Z,99935.16
2023-04-13T05:54:38.251Z,99934.00
2023-04-13T05:57:10.165Z,99941.06
2023-04-13T05:59:38.531Z,99940.03
2023-04-13T06:02:06.299Z,99942.06
2023-04-13T06:04:35.156Z,99938.59
2023-04-13T06:07:03.133Z,99946.41
2023-04-13T06:09:31.152Z,99946.91
2023-04-13T06:11:58.564Z,99950.13
2023-04-13T06:14:26.365Z,99949.34
2023-04-13T06:16:54.360Z,99951.84
2023-04-13T06:19:21.974Z,99955.94
2023-04-13T06:21:49.465Z,99946.41
2023-04-13T06:24:17.660Z,99943.38
2023-04-13T06:26:45.162Z,99947.28
2023-04-13T06:29:14.221Z,99949.47
2023-04-13T06:31:42.131Z,99955.09
2023-04-13T06:34:09.701Z,99966.41
2023-04-13T06:36:40.677Z,99969.75
2023-04-13T06:39:09.494Z,99989.09
2023-04-13T06:41:38.009Z,99989.25
2023-04-13T06:44:05.727Z,99994.72
2023-04-13T06:46:33.638Z,100011.25
2023-04-13T06:49:02.897Z,100010.66
2023-04-13T06:51:30.760Z,100006.66
2023-04-13T06:53:58.125Z,100023.47
2023-04-13T06:56:26.134Z,100029.84
2023-04-13T06:59:00.820Z,100023.38
2023-04-13T07:01:29.898Z,100019.53
2023-04-13T07:04:02.626Z,100020.78
2023-04-13T07:06:32.224Z,100019.56
2023-04-13T07:09:00.007Z,100031.00
2023-04-13T07:11:28.483Z,100032.88
2023-04-13T07:13:57.466Z,100028.31
2023-04-13T07:16:25.001Z,100031.22
2023-04-13T07:18:52.483Z,100035.38
2023-04-13T07:21:20.422Z,100026.28
2023-04-13T07:23:47.897Z,100037.06
2023-04-13T07:26:16.315Z,100031.03
2023-04-13T07:28:43.959Z,100025.03
2023-04-13T07:31:12.197Z,100033.09
2023-04-13T07:33:39.704Z,100034.56
2023-04-13T07:36:24.253Z,100042.00
2023-04-13T07:38:52.553Z,100035.59
2023-04-13T07:41:22.698Z,100034.97
2023-04-13T07:43:51.267Z,100034.31
2023-04-13T07:46:26.439Z,100040.72
2023-04-13T07:48:54.325Z,100042.34
2023-04-13T07:51:23.374Z,100047.34
2023-04-13T07:53:52.732Z,100045.28
2023-04-13T07:56:20.304Z,100047.34
2023-04-13T07:58:51.036Z,100042.78
2023-04-13T08:01:18.877Z,100042.34
2023-04-13T08:03:46.402Z,100036.56
2023-04-13T08:06:14.095Z,100025.34
2023-04-13T08:08:42.002Z,100021.97
2023-04-13T08:11:10.141Z,100011.38
2023-04-13T08:13:41.099Z,100020.66
2023-04-13T08:16:09.647Z,100014.84
2023-04-13T08:18:38.550Z,100011.75
2023-04-13T08:21:12.590Z,100015.94
2023-04-13T08:23:43.208Z,100009.44
2023-04-13T08:26:20.671Z,100017.09
2023-04-13T08:28:49.212Z,100010.25
2023-04-13T08:31:17.448Z,100013.19
2023-04-13T08:33:47.030Z,100013.41
2023-04-13T08:36:14.402Z,100030.00
2023-04-13T08:38:41.998Z,100023.38
2023-04-13T08:41:10.629Z,100015.09
2023-04-13T08:43:39.332Z,100008.03
2023-04-13T08:46:19.613Z,99998.91
2023-04-13T08:48:59.075Z,100005.53
2023-04-13T08:51:28.831Z,100008.66
2023-04-13T08:53:59.337Z,99998.72
2023-04-13T08:56:42.145Z,100004.31
2023-04-13T08:59:15.497Z,100013.03
2023-04-13T09:01:46.479Z,100004.91
2023-04-13T09:04:20.225Z,100017.16
2023-04-13T09:06:51.166Z,100011.34
2023-04-13T09:09:20.683Z,100012.59
2023-04-13T09:11:52.114Z,100014.25
2023-04-13T09:14:23.095Z,100013.44
2023-04-13T09:16:50.942Z,100018.41
2023-04-13T09:19:30.436Z,100022.72
2023-04-13T09:21:58.615Z,100019.00
2023-04-13T09:24:26.130Z,100013.41
2023-04-13T09:26:55.897Z,100016.72
2023-04-13T09:29:24.847Z,100024.19
2023-04-13T09:31:52.408Z,100022.09
2023-04-13T09:34:29.658Z,100018.28
2023-04-13T09:37:00.968Z,100021.69
2023-04-13T09:39:29.504Z,100022.53
2023-04-13T09:41:58.390Z,100025.00
2023-04-13T09:44:33.198Z,100023.38
2023-04-13T09:47:03.110Z,100030.81
2023-04-13T09:49:41.142Z,100031.63
2023-04-13T09:52:25.256Z,100030.38
2023-04-13T09:54:58.866Z,100042.41
2023-04-13T09:57:30.553Z,100045.47
2023-04-13T10:00:07.189Z,100042.22
2023-04-13T10:02:39.657Z,100039.53
2023-04-13T10:05:09.791Z,100026.88
2023-04-13T10:07:38.251Z,100038.09
2023-04-13T10:10:06.794Z,100032.06
2023-04-13T10:12:39.134Z,100034.16
2023-04-13T10:15:35.721Z,100045.97
2023-04-13T10:18:25.037Z,100038.94
2023-04-13T10:20:54.100Z,100042.88
2023-04-13T10:23:22.037Z,100039.13
2023-04-13T10:25:51.637Z,100042.06
2023-04-13T10:28:20.702Z,100044.53
2023-04-13T10:30:54.093Z,100053.88
2023-04-13T10:33:23.066Z,100060.06
2023-04-13T10:35:58.897Z,100064.81
2023-04-13T10:38:30.093Z,100060.69
2023-04-13T10:40:58.746Z,100059.66
2023-04-13T10:43:30.996Z,100060.50
2023-04-13T10:46:13.882Z,100065.66
2023-04-13T10:48:42.375Z,100058.81
2023-04-13T10:51:13.235Z,100056.13
2023-04-13T10:53:41.177Z,100057.16
2023-04-13T10:56:19.283Z,100059.41
2023-04-13T10:58:54.270Z,100054.66
2023-04-13T11:01:22.754Z,100062.31
2023-04-13T11:04:03.958Z,100062.78
2023-04-13T11:06:37.939Z,100057.16
2023-04-13T11:09:07.256Z,100066.06
2023-04-13T11:11:37.365Z,100062.56
2023-04-13T11:14:05.102Z,100068.59
2023-04-13T11:16:46.210Z,100067.91
2023-04-13T11:19:13.709Z,100062.72
2023-04-13T11:21:44.836Z,100058.97
2023-04-13T11:24:12.581Z,100056.47
2023-04-13T11:26:41.658Z,100054.00
2023-04-13T11:29:19.162Z,100060.22
2023-04-13T11:31:47.218Z,100050.72
2023-04-13T11:34:25.861Z,100060.47
2023-04-13T11:37:05.240Z,100050.09
2023-04-13T11:39:36.330Z,100054.03
2023-04-13T11:42:06.134Z,100052.41
2023-04-13T11:44:37.646Z,100051.75
2023-04-13T11:47:06.607Z,100049.47
2023-04-13T11:49:41.305Z,100053.22
2023-04-13T11:52:08.898Z,100050.28
2023-04-13T11:54:36.436Z,100055.69
2023-04-13T11:57:04.047Z,100056.94
2023-04-13T11:59:36.428Z,100051.56
2023-04-13T12:02:10.632Z,100050.25
2023-04-13T12:04:49.234Z,100047.59
2023-04-13T12:07:18.351Z,100049.78
2023-04-13T12:15:13.760Z,100042.25
2023-04-13T12:17:58.156Z,100039.28
2023-04-13T12:20:39.901Z,100043.50
2023-04-13T12:23:24.785Z,100051.53
2023-04-13T12:26:00.081Z,100035.94
2023-04-13T12:28:33.654Z,100037.03
2023-04-13T12:31:10.117Z,100036.47
2023-04-13T12:33:40.470Z,100035.75
2023-04-13T12:36:11.417Z,100034.63
2023-04-13T12:38:40.193Z,100037.38
2023-04-13T12:41:11.034Z,100039.97
2023-04-13T12:43:38.542Z,100031.88
2023-04-13T12:46:06.074Z,100042.34
2023-04-13T12:48:33.460Z,100034.75
2023-04-13T12:51:03.293Z,100036.94
2023-04-13T12:53:31.166Z,100038.38
2023-04-13T12:55:58.517Z,100043.94
2023-04-13T12:58:26.680Z,100046.44
2023-04-13T13:00:54.334Z,100036.44
2023-04-13T13:03:38.581Z,100034.56
2023-04-13T13:06:08.258Z,100032.59
2023-04-13T13:08:38.430Z,100036.31
2023-04-13T13:11:08.510Z,100031.75
2023-04-13T13:13:37.787Z,100038.03
2023-04-13T13:16:05.591Z,100035.25
2023-04-13T13:18:50.277Z,100036.28
2023-04-13T13:21:19.547Z,100028.28
2023-04-13T13:23:47.027Z,100017.16
2023-04-13T13:28:46.285Z,100035.56
2023-04-13T13:31:13.672Z,100030.66
2023-04-13T13:33:42.838Z,100027.81
2023-04-13T13:36:10.990Z,100036.50
2023-04-13T13:38:38.372Z,100037.59
2023-04-13T13:41:06.642Z,100040.03
2023-04-13T13:43:34.116Z,100046.31
2023-04-13T13:46:05.966Z,100043.13
2023-04-13T13:48:33.922Z,100044.53
2023-04-13T13:51:02.135Z,100044.91
2023-04-13T13:53:31.894Z,100039.72
2023-04-13T13:55:59.353Z,100037.59
2023-04-13T13:58:27.547Z,100037.84
2023-04-13T14:00:56.040Z,100032.03
2023-04-13T14:03:25.287Z,100026.91
2023-04-13T14:05:52.933Z,100026.78
2023-04-13T14:08:20.845Z,100027.72
2023-04-13T14:10:50.004Z,100025.69
2023-04-13T14:13:17.818Z,100028.50
2023-04-13T14:15:47.442Z,100027.81
2023-04-13T14:18:17.073Z,100026.94
2023-04-13T14:20:44.618Z,100026.16
2023-04-13T14:23:12.359Z,100022.56
2023-04-13T14:25:41.377Z,100023.34
2023-04-13T14:28:11.302Z,100032.97
2023-04-13T14:30:41.813Z,100039.66
2023-04-13T14:33:13.690Z,100034.47
2023-04-13T14:35:41.628Z,100040.50
2023-04-13T14:38:09.817Z,100041.75
2023-04-13T14:40:37.423Z,100038.38
2023-04-13T14:43:04.952Z,100038.06
2023-04-13T14:45:32.849Z,100037.72
2023-04-13T14:48:00.308Z,100043.00
2023-04-13T14:50:29.060Z,100037.97
2023-04-13T14:52:56.648Z,100035.09
2023-04-13T14:55:24.448Z,100039.69
2023-04-13T14:57:52.036Z,100047.38
2023-04-13T15:00:26.398Z,100046.13
2023-04-13T15:03:14.125Z,100049.81
2023-04-13T15:05:47.499Z,100043.56
2023-04-13T15:08:19.744Z,100049.38
2023-04-13T15:10:47.200Z,100042.22
2023-04-13T15:13:18.675Z,100041.16
2023-04-13T15:15:48.331Z,100038.72
2023-04-13T15:18:15.942Z,100044.19
2023-04-13T15:20:43.694Z,100051.72
2023-04-13T15:23:12.067Z,100052.56
2023-04-13T15:25:41.641Z,100056.38
2023-04-13T15:28:10.601Z,100047.56
2023-04-13T15:30:38.998Z,100046.72
2023-04-13T15:33:06.826Z,100042.56
2023-04-13T15:35:35.656Z,100052.31
2023-04-13T15:38:04.461Z,100052.47
2023-04-13T15:40:33.981Z,100052.91
2023-04-13T15:43:03.281Z,100049.56
2023-04-13T15:45:31.409Z,100045.31
2023-04-13T15:47:59.952Z,100048.22
2023-04-13T15:50:28.211Z,100045.88
2023-04-13T15:52:57.183Z,100045.31
2023-04-13T15:55:25.359Z,100045.72
2023-04-13T15:57:53.970Z,100048.41
2023-04-13T16:00:22.178Z,100045.72
2023-04-13T16:02:50.433Z,100055.25
2023-04-13T16:05:18.868Z,100052.63
2023-04-13T16:07:52.732Z,100057.38
2023-04-13T16:10:20.890Z,100052.84
2023-04-13T16:12:50.382Z,100049.56
2023-04-13T16:15:19.476Z,100059.47
2023-04-13T16:17:56.935Z,100053.25
2023-04-13T16:20:28.515Z,100062.59
2023-04-13T16:22:59.461Z,100061.22
2023-04-13T16:25:27.486Z,100063.69
2023-04-13T16:27:55.652Z,100072.03
2023-04-13T16:30:23.785Z,100072.78
2023-04-13T16:32:52.244Z,100074.94
2023-04-13T16:35:19.763Z,100074.53
2023-04-13T16:37:47.137Z,100082.41
2023-04-13T16:40:19.554Z,100079.16
2023-04-13T16:42:48.862Z,100086.34
2023-04-13T16:45:16.301Z,100081.69
2023-04-13T16:47:44.245Z,100085.03
2023-04-13T16:50:12.720Z,100090.84
2023-04-13T16:52:40.701Z,100091.38
2023-04-13T16:55:19.478Z,100093.88
2023-04-13T16:57:47.256Z,100093.44
2023-04-13T17:00:18.278Z,100094.28
2023-04-13T17:02:47.920Z,100100.84
2023-04-13T17:05:16.240Z,100096.50
2023-04-13T17:07:47.607Z,100097.94
2023-04-13T17:10:18.550Z,100099.78
2023-04-13T17:12:48.253Z,100107.03
2023-04-13T17:15:18.499Z,100107.47
2023-04-13T17:17:47.248Z,100114.13
2023-04-13T17:20:17.049Z,100100.47
2023-04-13T17:22:46.181Z,100107.88
2023-04-13T17:25:16.490Z,100100.81
2023-04-13T17:27:44.313Z,100115.97
2023-04-13T17:30:13.602Z,100120.00
2023-04-13T17:32:57.751Z,100123.75
2023-04-13T17:35:27.256Z,100128.53
2023-04-13T17:37:54.615Z,100125.84
2023-04-13T17:40:25.757Z,100126.84
2023-04-13T17:42:53.198Z,100118.34
2023-04-13T17:45:20.843Z,100120.03
2023-04-13T17:47:49.484Z,100110.88
2023-04-13T17:50:17.420Z,100107.16
2023-04-13T17:52:44.956Z,100103.81
2023-04-13T17:55:16.385Z,100108.16
2023-04-13T17:57:45.111Z,100112.09
2023-04-13T18:00:13.259Z,100103.81
2023-04-13T18:02:58.530Z,100111.47
2023-04-13T18:05:27.819Z,100109.00
2023-04-13T18:07:55.347Z,100104.19
2023-04-13T18:10:22.778Z,100109.63
2023-04-13T18:12:53.748Z,100103.34
2023-04-13T18:15:21.261Z,100101.72
2023-04-13T18:17:48.759Z,100097.38
2023-04-13T18:20:16.227Z,100097.59
2023-04-13T18:22:43.627Z,100102.16
2023-04-13T18:25:11.412Z,100104.63
2023-04-13T18:27:38.892Z,100099.47
2023-04-13T18:30:08.772Z,100096.97
2023-04-13T18:32:38.209Z,100105.94
2023-04-13T18:35:06.321Z,100101.16
2023-04-13T18:37:39.442Z,100107.59
2023-04-13T18:40:08.529Z,100095.72
2023-04-13T18:42:38.414Z,100092.22
2023-04-13T18:45:06.944Z,100100.09
2023-04-13T18:47:35.362Z,100093.88
2023-04-13T18:50:03.054Z,100094.06
2023-04-13T18:52:31.124Z,100100.91
2023-04-13T18:54:59.101Z,100093.03
2023-04-13T18:57:30.217Z,100094.69
2023-04-13T18:59:58.846Z,100092.84
2023-04-13T19:02:26.391Z,100084.53
2023-04-13T19:04:54.251Z,100086.81
2023-04-13T19:07:21.794Z,100081.00
2023-04-13T19:09:49.774Z,100084.75
2023-04-13T19:12:17.294Z,100084.13
2023-04-13T19:14:48.775Z,100086.00
2023-04-13T19:17:21.058Z,100087.88
2023-04-13T19:19:49.147Z,100089.75
2023-04-13T19:22:16.612Z,100087.03
2023-04-13T19:24:46.413Z,100086.41
2023-04-13T19:27:14.152Z,100092.44
2023-04-13T19:29:41.760Z,100088.91
2023-04-13T19:32:11.815Z,100091.41
2023-04-13T19:34:39.841Z,100086.38
2023-04-13T19:37:07.317Z,100083.50
2023-04-13T19:39:35.198Z,100078.94
2023-04-13T19:42:02.724Z,100077.47
2023-04-13T19:44:30.524Z,100078.94
2023-04-13T19:47:02.017Z,100079.34
2023-04-13T19:49:29.866Z,100077.28
2023-04-13T19:51:57.273Z,100075.81
2023-04-13T19:54:29.172Z,100077.91
2023-04-13T19:56:56.753Z,100073.34
2023-04-13T19:59:24.142Z,100076.88
2023-04-13T20:01:52.185Z,100082.69
2023-04-13T20:04:20.709Z,100082.69
2023-04-13T20:06:48.138Z,100087.22
2023-04-13T20:09:15.726Z,100092.00
2023-04-13T20:11:52.626Z,100089.91
2023-04-13T20:14:21.148Z,100092.22
2023-04-13T20:16:48.735Z,100084.34
2023-04-13T20:19:16.387Z,100083.50
2023-04-13T20:21:46.790Z,100080.81
2023-04-13T20:24:14.355Z,100085.19
2023-04-13T20:26:43.659Z,100083.69
2023-04-13T20:29:11.330Z,100079.34
2023-04-13T20:31:39.075Z,100085.34
2023-04-13T20:34:09.778Z,100086.19
2023-04-13T20:36:37.399Z,100085.56
2023-04-13T20:39:09.580Z,100075.16
2023-04-13T20:41:39.001Z,100084.09
2023-04-13T20:44:09.969Z,100082.88
2023-04-13T20:46:42.009Z,100080.97
2023-04-13T20:49:11.949Z,100085.53
2023-04-13T20:51:39.805Z,100092.38
2023-04-13T20:54:07.478Z,100090.53
2023-04-13T20:56:38.451Z,100084.28
2023-04-13T20:59:07.567Z,100079.72
2023-04-13T21:01:35.533Z,100085.13
2023-04-13T21:04:03.851Z,100076.84
2023-04-13T21:06:31.983Z,100080.75
2023-04-13T21:08:59.572Z,100078.72
2023-04-13T21:11:27.521Z,100081.00
2023-04-13T21:13:55.006Z,100084.13
2023-04-13T21:16:25.840Z,100091.78
2023-04-13T21:18:54.462Z,100092.63
2023-04-13T21:21:23.468Z,100095.53
2023-04-13T21:23:51.295Z,100095.94
2023-04-13T21:26:18.889Z,100094.91
2023-04-13T21:28:47.842Z,100087.66
2023-04-13T21:31:15.645Z,100090.13
2023-04-13T21:33:43.238Z,100091.81
2023-04-13T21:38:41.956Z,100088.50
2023-04-13T21:41:16.029Z,100098.03
2023-04-13T21:43:43.926Z,100097.00
2023-04-13T21:46:13.776Z,100101.34
2023-04-13T21:48:41.937Z,100097.59
2023-04-13T21:51:09.895Z,100085.56
2023-04-13T21:53:39.064Z,100089.50
2023-04-13T21:56:07.056Z,100091.81
2023-04-13T21:58:39.573Z,100093.47
2023-04-13T22:01:07.455Z,100093.66
2023-04-13T22:03:37.540Z,100088.28
2023-04-13T22:06:07.140Z,100082.69
2023-04-13T22:08:36.169Z,100083.50
2023-04-13T22:11:04.087Z,100079.78
2023-04-13T22:13:32.200Z,100083.69
2023-04-13T22:16:02.732Z,100075.59
2023-04-13T22:18:30.314Z,100076.66
2023-04-13T22:20:59.863Z,100082.47
2023-04-13T22:23:29.546Z,100085.38
2023-04-13T22:26:03.891Z,100090.53
2023-04-13T22:28:32.059Z,100088.03
2023-04-13T22:31:06.996Z,100088.06
2023-04-13T22:33:40.424Z,100092.63
2023-04-13T22:36:17.666Z,100094.69
2023-04-13T22:38:48.992Z,100090.53
2023-04-13T22:41:17.661Z,100091.38
2023-04-13T22:43:45.068Z,100088.63
2023-04-13T22:46:12.506Z,100085.13
2023-04-13T22:48:40.918Z,100096.31
2023-04-13T22:51:08.519Z,100093.88
2023-04-13T22:53:36.034Z,100090.13
2023-04-13T22:56:05.637Z,100098.44
2023-04-13T22:58:33.099Z,100095.94
2023-04-13T23:01:01.468Z,100101.56
2023-04-13T23:03:30.239Z,100090.75
2023-04-13T23:05:59.002Z,100102.56
2023-04-13T23:08:26.394Z,100091.78
2023-04-13T23:10:56.285Z,100091.38
2023-04-13T23:13:24.371Z,100095.94
2023-04-13T23:15:59.446Z,100093.25
2023-04-13T23:18:28.135Z,100085.16
2023-04-13T23:20:56.027Z,100102.34
2023-04-13T23:23:23.806Z,100094.28
2023-04-13T23:25:51.525Z,100103.00
2023-04-13T23:28:19.369Z,100102.56
2023-04-13T23:30:50.640Z,100101.75
2023-04-13T23:33:18.398Z,100105.91
2023-04-13T23:35:52.453Z,100102.56
2023-04-13T23:38:22.235Z,100104.66
2023-04-13T23:40:50.304Z,100109.44
2023-04-13T23:43:17.644Z,100112.34
2023-04-13T23:45:45.054Z,100121.25
2023-04-13T23:48:12.874Z,100125.81
2023-04-13T23:50:40.281Z,100128.72
2023-04-13T23:53:08.022Z,100135.13
2023-04-13T23:55:35.542Z,100140.75
2023-04-13T23:58:13.018Z,100138.69
